sensor_id;sensor_type;location;lat;lon;timestamp;P1;durP1;ratioP1;P2;durP2;ratioP2
43560;SDS011;32305;46.410;17.394;2022-09-09T00:00:28;1.00;;;1.00;;
43560;SDS011;32305;46.410;17.394;2022-09-09T00:03:06;1.75;;;1.25;;
43560;SDS011;32305;46.410;17.394;2022-09-09T00:05:42;1.67;;;1.52;;
43560;SDS011;32305;46.410;17.394;2022-09-09T00:08:19;0.75;;;0.75;;
43560;SDS011;32305;46.410;17.394;2022-09-09T00:10:51;1.50;;;1.25;;
43560;SDS011;32305;46.410;17.394;2022-09-09T00:13:28;1.05;;;1.05;;
43560;SDS011;32305;46.410;17.394;2022-09-09T00:16:17;1.42;;;1.10;;
43560;SDS011;32305;46.410;17.394;2022-09-09T00:18:57;1.85;;;1.15;;
43560;SDS011;32305;46.410;17.394;2022-09-09T00:21:38;1.15;;;1.02;;
43560;SDS011;32305;46.410;17.394;2022-09-09T00:24:27;0.90;;;0.90;;
43560;SDS011;32305;46.410;17.394;2022-09-09T00:27:04;1.33;;;0.98;;
43560;SDS011;32305;46.410;17.394;2022-09-09T00:30:00;0.95;;;0.95;;
43560;SDS011;32305;46.410;17.394;2022-09-09T00:32:40;0.85;;;0.85;;
43560;SDS011;32305;46.410;17.394;2022-09-09T00:35:25;2.13;;;1.00;;
43560;SDS011;32305;46.410;17.394;2022-09-09T00:38:11;1.30;;;1.00;;
43560;SDS011;32305;46.410;17.394;2022-09-09T00:43:27;0.93;;;0.93;;
43560;SDS011;32305;46.410;17.394;2022-09-09T00:46:05;1.10;;;1.00;;
43560;SDS011;32305;46.410;17.394;2022-09-09T00:52:03;0.93;;;0.93;;
43560;SDS011;32305;46.410;17.394;2022-09-09T00:55:05;1.67;;;0.98;;
43560;SDS011;32305;46.410;17.394;2022-09-09T00:57:53;0.95;;;0.95;;
43560;SDS011;32305;46.410;17.394;2022-09-09T01:00:30;1.00;;;1.00;;
43560;SDS011;32305;46.410;17.394;2022-09-09T01:03:19;1.15;;;0.90;;
43560;SDS011;32305;46.410;17.394;2022-09-09T01:06:14;1.00;;;0.90;;
43560;SDS011;32305;46.410;17.394;2022-09-09T01:08:53;1.00;;;1.00;;
43560;SDS011;32305;46.410;17.394;2022-09-09T01:11:36;1.35;;;1.00;;
43560;SDS011;32305;46.410;17.394;2022-09-09T01:14:35;0.85;;;0.85;;
43560;SDS011;32305;46.410;17.394;2022-09-09T01:17:15;1.15;;;0.85;;
43560;SDS011;32305;46.410;17.394;2022-09-09T01:20:05;0.65;;;0.65;;
43560;SDS011;32305;46.410;17.394;2022-09-09T01:22:59;0.70;;;0.70;;
43560;SDS011;32305;46.410;17.394;2022-09-09T01:25:56;1.25;;;0.80;;
43560;SDS011;32305;46.410;17.394;2022-09-09T01:28:34;0.90;;;0.90;;
43560;SDS011;32305;46.410;17.394;2022-09-09T01:31:04;1.00;;;1.00;;
43560;SDS011;32305;46.410;17.394;2022-09-09T01:33:34;0.90;;;0.90;;
43560;SDS011;32305;46.410;17.394;2022-09-09T01:36:12;1.08;;;0.98;;
43560;SDS011;32305;46.410;17.394;2022-09-09T01:38:47;1.05;;;0.95;;
43560;SDS011;32305;46.410;17.394;2022-09-09T01:41:15;1.15;;;1.05;;
43560;SDS011;32305;46.410;17.394;2022-09-09T01:43:42;1.05;;;1.05;;
43560;SDS011;32305;46.410;17.394;2022-09-09T01:46:09;0.85;;;0.85;;
43560;SDS011;32305;46.410;17.394;2022-09-09T01:48:38;1.15;;;0.98;;
43560;SDS011;32305;46.410;17.394;2022-09-09T01:51:08;1.23;;;1.13;;
43560;SDS011;32305;46.410;17.394;2022-09-09T01:53:37;0.85;;;0.80;;
43560;SDS011;32305;46.410;17.394;2022-09-09T01:59:21;1.00;;;1.00;;
43560;SDS011;32305;46.410;17.394;2022-09-09T02:02:04;1.00;;;0.93;;
43560;SDS011;32305;46.410;17.394;2022-09-09T02:04:54;1.38;;;0.90;;
43560;SDS011;32305;46.410;17.394;2022-09-09T02:07:42;0.70;;;0.70;;
43560;SDS011;32305;46.410;17.394;2022-09-09T02:10:19;0.80;;;0.80;;
43560;SDS011;32305;46.410;17.394;2022-09-09T02:12:51;0.95;;;0.95;;
43560;SDS011;32305;46.410;17.394;2022-09-09T02:15:38;1.27;;;1.17;;
43560;SDS011;32305;46.410;17.394;2022-09-09T02:18:24;0.90;;;0.90;;
43560;SDS011;32305;46.410;17.394;2022-09-09T02:20:56;0.80;;;0.80;;
43560;SDS011;32305;46.410;17.394;2022-09-09T02:23:25;0.75;;;0.75;;
43560;SDS011;32305;46.410;17.394;2022-09-09T02:25:52;0.65;;;0.65;;
43560;SDS011;32305;46.410;17.394;2022-09-09T02:28:22;0.80;;;0.80;;
43560;SDS011;32305;46.410;17.394;2022-09-09T02:30:52;0.68;;;0.68;;
43560;SDS011;32305;46.410;17.394;2022-09-09T02:33:23;0.80;;;0.80;;
43560;SDS011;32305;46.410;17.394;2022-09-09T02:35:53;1.65;;;0.80;;
43560;SDS011;32305;46.410;17.394;2022-09-09T02:38:23;0.77;;;0.77;;
43560;SDS011;32305;46.410;17.394;2022-09-09T02:40:55;1.95;;;0.60;;
43560;SDS011;32305;46.410;17.394;2022-09-09T02:43:22;1.05;;;0.80;;
43560;SDS011;32305;46.410;17.394;2022-09-09T02:49:00;1.20;;;1.15;;
43560;SDS011;32305;46.410;17.394;2022-09-09T02:51:40;0.88;;;0.88;;
43560;SDS011;32305;46.410;17.394;2022-09-09T02:54:29;0.90;;;0.90;;
43560;SDS011;32305;46.410;17.394;2022-09-09T02:57:01;1.30;;;1.20;;
43560;SDS011;32305;46.410;17.394;2022-09-09T02:59:49;0.70;;;0.70;;
43560;SDS011;32305;46.410;17.394;2022-09-09T03:02:18;0.75;;;0.68;;
43560;SDS011;32305;46.410;17.394;2022-09-09T03:04:45;0.70;;;0.70;;
43560;SDS011;32305;46.410;17.394;2022-09-09T03:07:17;0.63;;;0.63;;
43560;SDS011;32305;46.410;17.394;2022-09-09T03:09:45;0.82;;;0.82;;
43560;SDS011;32305;46.410;17.394;2022-09-09T03:12:12;0.60;;;0.60;;
43560;SDS011;32305;46.410;17.394;2022-09-09T03:14:40;0.68;;;0.68;;
43560;SDS011;32305;46.410;17.394;2022-09-09T03:17:07;2.92;;;1.38;;
43560;SDS011;32305;46.410;17.394;2022-09-09T03:19:35;1.00;;;0.70;;
43560;SDS011;32305;46.410;17.394;2022-09-09T03:22:03;0.68;;;0.68;;
43560;SDS011;32305;46.410;17.394;2022-09-09T03:24:31;0.60;;;0.60;;
43560;SDS011;32305;46.410;17.394;2022-09-09T03:26:58;0.80;;;0.80;;
43560;SDS011;32305;46.410;17.394;2022-09-09T03:29:25;0.63;;;0.63;;
43560;SDS011;32305;46.410;17.394;2022-09-09T03:31:52;0.47;;;0.47;;
43560;SDS011;32305;46.410;17.394;2022-09-09T03:34:19;0.63;;;0.50;;
43560;SDS011;32305;46.410;17.394;2022-09-09T03:36:46;1.65;;;0.80;;
43560;SDS011;32305;46.410;17.394;2022-09-09T03:39:14;0.70;;;0.70;;
43560;SDS011;32305;46.410;17.394;2022-09-09T03:41:42;1.13;;;0.90;;
43560;SDS011;32305;46.410;17.394;2022-09-09T03:44:11;0.68;;;0.68;;
43560;SDS011;32305;46.410;17.394;2022-09-09T03:46:39;0.70;;;0.70;;
43560;SDS011;32305;46.410;17.394;2022-09-09T03:49:06;0.90;;;0.90;;
43560;SDS011;32305;46.410;17.394;2022-09-09T03:51:33;0.75;;;0.60;;
43560;SDS011;32305;46.410;17.394;2022-09-09T03:54:02;1.17;;;1.17;;
43560;SDS011;32305;46.410;17.394;2022-09-09T03:56:31;0.50;;;0.50;;
43560;SDS011;32305;46.410;17.394;2022-09-09T03:58:58;0.70;;;0.70;;
43560;SDS011;32305;46.410;17.394;2022-09-09T04:01:25;0.70;;;0.70;;
43560;SDS011;32305;46.410;17.394;2022-09-09T04:03:53;0.88;;;0.40;;
43560;SDS011;32305;46.410;17.394;2022-09-09T04:06:21;0.80;;;0.70;;
43560;SDS011;32305;46.410;17.394;2022-09-09T04:08:49;0.52;;;0.52;;
43560;SDS011;32305;46.410;17.394;2022-09-09T04:11:16;0.55;;;0.55;;
43560;SDS011;32305;46.410;17.394;2022-09-09T04:13:44;1.85;;;0.50;;
43560;SDS011;32305;46.410;17.394;2022-09-09T04:16:11;1.05;;;0.52;;
43560;SDS011;32305;46.410;17.394;2022-09-09T04:18:42;0.68;;;0.68;;
43560;SDS011;32305;46.410;17.394;2022-09-09T04:21:10;0.82;;;0.82;;
43560;SDS011;32305;46.410;17.394;2022-09-09T04:23:38;0.70;;;0.47;;
43560;SDS011;32305;46.410;17.394;2022-09-09T04:26:05;0.70;;;0.70;;
43560;SDS011;32305;46.410;17.394;2022-09-09T04:28:33;1.25;;;0.50;;
43560;SDS011;32305;46.410;17.394;2022-09-09T04:31:09;1.23;;;0.70;;
43560;SDS011;32305;46.410;17.394;2022-09-09T04:33:41;0.70;;;0.70;;
43560;SDS011;32305;46.410;17.394;2022-09-09T04:36:08;0.70;;;0.70;;
43560;SDS011;32305;46.410;17.394;2022-09-09T04:38:35;0.60;;;0.60;;
43560;SDS011;32305;46.410;17.394;2022-09-09T04:41:03;0.50;;;0.50;;
43560;SDS011;32305;46.410;17.394;2022-09-09T04:43:30;0.80;;;0.80;;
43560;SDS011;32305;46.410;17.394;2022-09-09T04:45:57;0.60;;;0.60;;
43560;SDS011;32305;46.410;17.394;2022-09-09T04:48:28;0.75;;;0.60;;
43560;SDS011;32305;46.410;17.394;2022-09-09T04:50:57;0.70;;;0.70;;
43560;SDS011;32305;46.410;17.394;2022-09-09T04:53:26;0.45;;;0.40;;
43560;SDS011;32305;46.410;17.394;2022-09-09T04:56:00;0.47;;;0.47;;
43560;SDS011;32305;46.410;17.394;2022-09-09T04:58:29;0.57;;;0.57;;
43560;SDS011;32305;46.410;17.394;2022-09-09T05:01:04;0.50;;;0.50;;
43560;SDS011;32305;46.410;17.394;2022-09-09T05:03:35;0.95;;;0.80;;
43560;SDS011;32305;46.410;17.394;2022-09-09T05:06:06;1.20;;;1.10;;
43560;SDS011;32305;46.410;17.394;2022-09-09T05:08:38;0.60;;;0.60;;
43560;SDS011;32305;46.410;17.394;2022-09-09T05:11:16;0.55;;;0.47;;
43560;SDS011;32305;46.410;17.394;2022-09-09T05:13:45;0.60;;;0.60;;
43560;SDS011;32305;46.410;17.394;2022-09-09T05:16:13;0.60;;;0.60;;
43560;SDS011;32305;46.410;17.394;2022-09-09T05:18:41;1.15;;;1.05;;
43560;SDS011;32305;46.410;17.394;2022-09-09T05:21:09;1.42;;;1.00;;
43560;SDS011;32305;46.410;17.394;2022-09-09T05:23:37;0.80;;;0.80;;
43560;SDS011;32305;46.410;17.394;2022-09-09T05:26:05;1.70;;;1.25;;
43560;SDS011;32305;46.410;17.394;2022-09-09T05:28:35;2.78;;;1.17;;
43560;SDS011;32305;46.410;17.394;2022-09-09T05:31:03;2.63;;;1.00;;
43560;SDS011;32305;46.410;17.394;2022-09-09T05:33:35;1.70;;;1.08;;
43560;SDS011;32305;46.410;17.394;2022-09-09T05:36:04;4.25;;;1.20;;
43560;SDS011;32305;46.410;17.394;2022-09-09T05:38:34;3.03;;;1.00;;
43560;SDS011;32305;46.410;17.394;2022-09-09T05:41:02;1.98;;;0.90;;
43560;SDS011;32305;46.410;17.394;2022-09-09T05:43:30;3.03;;;1.30;;
43560;SDS011;32305;46.410;17.394;2022-09-09T05:45:59;3.90;;;1.30;;
43560;SDS011;32305;46.410;17.394;2022-09-09T05:48:29;8.02;;;1.67;;
43560;SDS011;32305;46.410;17.394;2022-09-09T05:50:58;3.13;;;1.15;;
43560;SDS011;32305;46.410;17.394;2022-09-09T05:53:26;7.75;;;1.33;;
43560;SDS011;32305;46.410;17.394;2022-09-09T05:56:02;4.13;;;1.30;;
43560;SDS011;32305;46.410;17.394;2022-09-09T05:58:33;1.38;;;1.20;;
43560;SDS011;32305;46.410;17.394;2022-09-09T06:01:08;2.88;;;1.65;;
43560;SDS011;32305;46.410;17.394;2022-09-09T06:03:47;1.38;;;1.30;;
43560;SDS011;32305;46.410;17.394;2022-09-09T06:06:16;2.05;;;1.00;;
43560;SDS011;32305;46.410;17.394;2022-09-09T06:08:52;1.98;;;1.25;;
43560;SDS011;32305;46.410;17.394;2022-09-09T06:11:23;6.85;;;1.60;;
43560;SDS011;32305;46.410;17.394;2022-09-09T06:13:57;4.25;;;1.83;;
43560;SDS011;32305;46.410;17.394;2022-09-09T06:16:26;4.95;;;2.08;;
43560;SDS011;32305;46.410;17.394;2022-09-09T06:18:55;4.35;;;1.92;;
43560;SDS011;32305;46.410;17.394;2022-09-09T06:21:25;8.70;;;2.10;;
43560;SDS011;32305;46.410;17.394;2022-09-09T06:23:54;3.78;;;1.55;;
43560;SDS011;32305;46.410;17.394;2022-09-09T06:26:31;4.90;;;2.35;;
43560;SDS011;32305;46.410;17.394;2022-09-09T06:28:59;3.90;;;1.52;;
43560;SDS011;32305;46.410;17.394;2022-09-09T06:31:30;6.05;;;1.45;;
43560;SDS011;32305;46.410;17.394;2022-09-09T06:34:01;2.40;;;1.42;;
43560;SDS011;32305;46.410;17.394;2022-09-09T06:36:31;4.78;;;1.23;;
43560;SDS011;32305;46.410;17.394;2022-09-09T06:39:00;3.55;;;1.60;;
43560;SDS011;32305;46.410;17.394;2022-09-09T06:41:28;5.63;;;1.70;;
43560;SDS011;32305;46.410;17.394;2022-09-09T06:43:57;1.60;;;1.37;;
43560;SDS011;32305;46.410;17.394;2022-09-09T06:46:26;3.83;;;1.50;;
43560;SDS011;32305;46.410;17.394;2022-09-09T06:48:54;4.50;;;1.30;;
43560;SDS011;32305;46.410;17.394;2022-09-09T06:51:24;1.02;;;1.00;;
43560;SDS011;32305;46.410;17.394;2022-09-09T06:53:55;1.88;;;1.00;;
43560;SDS011;32305;46.410;17.394;2022-09-09T06:56:27;6.97;;;1.40;;
43560;SDS011;32305;46.410;17.394;2022-09-09T06:58:57;2.88;;;1.10;;
43560;SDS011;32305;46.410;17.394;2022-09-09T07:01:31;1.85;;;1.00;;
43560;SDS011;32305;46.410;17.394;2022-09-09T07:04:00;0.95;;;0.80;;
43560;SDS011;32305;46.410;17.394;2022-09-09T07:06:31;1.35;;;1.20;;
43560;SDS011;32305;46.410;17.394;2022-09-09T07:11:31;2.30;;;1.30;;
43560;SDS011;32305;46.410;17.394;2022-09-09T07:14:00;1.43;;;0.90;;
43560;SDS011;32305;46.410;17.394;2022-09-09T07:16:27;0.98;;;0.90;;
43560;SDS011;32305;46.410;17.394;2022-09-09T07:18:55;1.35;;;1.25;;
43560;SDS011;32305;46.410;17.394;2022-09-09T07:21:24;1.00;;;0.95;;
43560;SDS011;32305;46.410;17.394;2022-09-09T07:23:53;1.38;;;1.10;;
43560;SDS011;32305;46.410;17.394;2022-09-09T07:26:21;0.90;;;0.90;;
43560;SDS011;32305;46.410;17.394;2022-09-09T07:28:50;3.67;;;0.90;;
43560;SDS011;32305;46.410;17.394;2022-09-09T07:31:19;1.95;;;0.80;;
43560;SDS011;32305;46.410;17.394;2022-09-09T07:33:48;0.63;;;0.60;;
43560;SDS011;32305;46.410;17.394;2022-09-09T07:36:20;1.77;;;0.93;;
43560;SDS011;32305;46.410;17.394;2022-09-09T07:39:00;1.15;;;1.05;;
43560;SDS011;32305;46.410;17.394;2022-09-09T07:41:35;1.60;;;0.82;;
43560;SDS011;32305;46.410;17.394;2022-09-09T07:44:08;3.33;;;0.80;;
43560;SDS011;32305;46.410;17.394;2022-09-09T07:46:38;2.90;;;0.82;;
43560;SDS011;32305;46.410;17.394;2022-09-09T07:49:06;1.33;;;0.98;;
43560;SDS011;32305;46.410;17.394;2022-09-09T07:51:35;5.38;;;0.90;;
43560;SDS011;32305;46.410;17.394;2022-09-09T07:54:06;0.90;;;0.77;;
43560;SDS011;32305;46.410;17.394;2022-09-09T07:56:36;2.20;;;0.55;;
43560;SDS011;32305;46.410;17.394;2022-09-09T07:59:05;0.68;;;0.68;;
43560;SDS011;32305;46.410;17.394;2022-09-09T08:01:34;0.93;;;0.70;;
43560;SDS011;32305;46.410;17.394;2022-09-09T08:04:08;0.80;;;0.47;;
43560;SDS011;32305;46.410;17.394;2022-09-09T08:06:43;0.90;;;0.70;;
43560;SDS011;32305;46.410;17.394;2022-09-09T08:09:16;0.75;;;0.50;;
43560;SDS011;32305;46.410;17.394;2022-09-09T08:11:43;8.85;;;0.80;;
43560;SDS011;32305;46.410;17.394;2022-09-09T08:14:11;0.95;;;0.47;;
43560;SDS011;32305;46.410;17.394;2022-09-09T08:16:41;3.67;;;0.60;;
43560;SDS011;32305;46.410;17.394;2022-09-09T08:19:10;0.32;;;0.32;;
43560;SDS011;32305;46.410;17.394;2022-09-09T08:21:38;4.22;;;1.23;;
43560;SDS011;32305;46.410;17.394;2022-09-09T08:24:07;1.88;;;0.50;;
43560;SDS011;32305;46.410;17.394;2022-09-09T08:26:37;1.30;;;1.00;;
43560;SDS011;32305;46.410;17.394;2022-09-09T08:29:08;0.90;;;0.70;;
43560;SDS011;32305;46.410;17.394;2022-09-09T08:31:37;0.52;;;0.52;;
43560;SDS011;32305;46.410;17.394;2022-09-09T08:34:07;1.33;;;0.50;;
43560;SDS011;32305;46.410;17.394;2022-09-09T08:36:36;0.85;;;0.55;;
43560;SDS011;32305;46.410;17.394;2022-09-09T08:39:05;2.05;;;0.68;;
43560;SDS011;32305;46.410;17.394;2022-09-09T08:44:50;1.05;;;0.52;;
43560;SDS011;32305;46.410;17.394;2022-09-09T08:50:52;0.45;;;0.45;;
43560;SDS011;32305;46.410;17.394;2022-09-09T08:53:20;2.50;;;0.52;;
43560;SDS011;32305;46.410;17.394;2022-09-09T08:55:59;1.10;;;1.00;;
43560;SDS011;32305;46.410;17.394;2022-09-09T08:58:31;3.60;;;0.63;;
43560;SDS011;32305;46.410;17.394;2022-09-09T09:01:14;1.20;;;0.60;;
43560;SDS011;32305;46.410;17.394;2022-09-09T09:07:21;1.45;;;0.50;;
43560;SDS011;32305;46.410;17.394;2022-09-09T09:13:12;1.85;;;0.70;;
43560;SDS011;32305;46.410;17.394;2022-09-09T09:15:58;2.40;;;0.70;;
43560;SDS011;32305;46.410;17.394;2022-09-09T09:18:33;1.23;;;1.10;;
43560;SDS011;32305;46.410;17.394;2022-09-09T09:21:07;2.80;;;0.88;;
43560;SDS011;32305;46.410;17.394;2022-09-09T09:23:48;1.45;;;0.68;;
43560;SDS011;32305;46.410;17.394;2022-09-09T09:26:23;2.70;;;0.65;;
43560;SDS011;32305;46.410;17.394;2022-09-09T09:31:38;0.77;;;0.45;;
43560;SDS011;32305;46.410;17.394;2022-09-09T09:34:05;1.20;;;0.80;;
43560;SDS011;32305;46.410;17.394;2022-09-09T09:36:42;3.85;;;0.60;;
43560;SDS011;32305;46.410;17.394;2022-09-09T09:39:27;3.92;;;0.63;;
43560;SDS011;32305;46.410;17.394;2022-09-09T09:42:23;3.08;;;0.70;;
43560;SDS011;32305;46.410;17.394;2022-09-09T09:44:51;1.13;;;0.93;;
43560;SDS011;32305;46.410;17.394;2022-09-09T09:47:21;2.72;;;0.60;;
43560;SDS011;32305;46.410;17.394;2022-09-09T09:49:57;1.50;;;0.40;;
43560;SDS011;32305;46.410;17.394;2022-09-09T09:52:28;0.50;;;0.50;;
43560;SDS011;32305;46.410;17.394;2022-09-09T09:54:57;3.53;;;0.47;;
43560;SDS011;32305;46.410;17.394;2022-09-09T09:57:33;2.25;;;0.50;;
43560;SDS011;32305;46.410;17.394;2022-09-09T10:00:14;1.15;;;0.50;;
43560;SDS011;32305;46.410;17.394;2022-09-09T10:02:48;0.35;;;0.32;;
43560;SDS011;32305;46.410;17.394;2022-09-09T10:05:21;1.00;;;0.63;;
43560;SDS011;32305;46.410;17.394;2022-09-09T10:08:09;3.33;;;0.70;;
43560;SDS011;32305;46.410;17.394;2022-09-09T10:10:48;4.93;;;0.50;;
43560;SDS011;32305;46.410;17.394;2022-09-09T10:14:20;0.80;;;0.50;;
43560;SDS011;32305;46.410;17.394;2022-09-09T10:16:46;1.52;;;0.60;;
43560;SDS011;32305;46.410;17.394;2022-09-09T10:19:29;0.63;;;0.63;;
43560;SDS011;32305;46.410;17.394;2022-09-09T10:22:04;0.93;;;0.85;;
43560;SDS011;32305;46.410;17.394;2022-09-09T10:24:54;1.60;;;0.57;;
43560;SDS011;32305;46.410;17.394;2022-09-09T10:28:29;2.63;;;0.43;;
43560;SDS011;32305;46.410;17.394;2022-09-09T10:33:49;0.95;;;0.40;;
43560;SDS011;32305;46.410;17.394;2022-09-09T10:36:29;2.58;;;0.60;;
43560;SDS011;32305;46.410;17.394;2022-09-09T10:39:04;1.42;;;0.60;;
43560;SDS011;32305;46.410;17.394;2022-09-09T10:44:55;1.17;;;0.60;;
43560;SDS011;32305;46.410;17.394;2022-09-09T10:47:52;1.77;;;0.68;;
43560;SDS011;32305;46.410;17.394;2022-09-09T10:50:41;1.20;;;0.43;;
43560;SDS011;32305;46.410;17.394;2022-09-09T10:53:37;3.75;;;0.43;;
43560;SDS011;32305;46.410;17.394;2022-09-09T10:56:28;1.20;;;0.80;;
43560;SDS011;32305;46.410;17.394;2022-09-09T10:59:02;0.40;;;0.40;;
43560;SDS011;32305;46.410;17.394;2022-09-09T11:01:45;3.28;;;0.50;;
43560;SDS011;32305;46.410;17.394;2022-09-09T11:04:27;1.98;;;0.40;;
43560;SDS011;32305;46.410;17.394;2022-09-09T11:07:02;2.15;;;0.60;;
43560;SDS011;32305;46.410;17.394;2022-09-09T11:09:46;0.68;;;0.60;;
43560;SDS011;32305;46.410;17.394;2022-09-09T11:12:19;4.53;;;0.50;;
43560;SDS011;32305;46.410;17.394;2022-09-09T11:14:51;0.47;;;0.47;;
43560;SDS011;32305;46.410;17.394;2022-09-09T11:17:26;2.38;;;0.40;;
43560;SDS011;32305;46.410;17.394;2022-09-09T11:20:10;1.35;;;0.65;;
43560;SDS011;32305;46.410;17.394;2022-09-09T11:22:42;0.43;;;0.43;;
43560;SDS011;32305;46.410;17.394;2022-09-09T11:25:17;2.55;;;0.70;;
43560;SDS011;32305;46.410;17.394;2022-09-09T11:27:55;6.45;;;0.82;;
43560;SDS011;32305;46.410;17.394;2022-09-09T11:30:58;0.43;;;0.43;;
43560;SDS011;32305;46.410;17.394;2022-09-09T11:37:08;3.55;;;0.68;;
43560;SDS011;32305;46.410;17.394;2022-09-09T11:39:51;0.60;;;0.60;;
43560;SDS011;32305;46.410;17.394;2022-09-09T11:42:32;1.05;;;0.70;;
43560;SDS011;32305;46.410;17.394;2022-09-09T11:45:08;0.60;;;0.60;;
43560;SDS011;32305;46.410;17.394;2022-09-09T11:47:53;0.40;;;0.40;;
43560;SDS011;32305;46.410;17.394;2022-09-09T11:50:29;3.92;;;0.50;;
43560;SDS011;32305;46.410;17.394;2022-09-09T11:53:18;1.55;;;0.30;;
43560;SDS011;32305;46.410;17.394;2022-09-09T11:56:07;0.55;;;0.40;;
43560;SDS011;32305;46.410;17.394;2022-09-09T11:58:41;0.70;;;0.63;;
43560;SDS011;32305;46.410;17.394;2022-09-09T12:01:13;0.40;;;0.40;;
43560;SDS011;32305;46.410;17.394;2022-09-09T12:03:47;0.93;;;0.50;;
43560;SDS011;32305;46.410;17.394;2022-09-09T12:06:30;1.27;;;0.52;;
43560;SDS011;32305;46.410;17.394;2022-09-09T12:09:06;7.72;;;1.65;;
43560;SDS011;32305;46.410;17.394;2022-09-09T12:11:37;0.47;;;0.40;;
43560;SDS011;32305;46.410;17.394;2022-09-09T12:14:04;4.25;;;0.50;;
43560;SDS011;32305;46.410;17.394;2022-09-09T12:16:44;3.28;;;0.70;;
43560;SDS011;32305;46.410;17.394;2022-09-09T12:19:18;3.45;;;0.50;;
43560;SDS011;32305;46.410;17.394;2022-09-09T12:21:58;1.88;;;0.50;;
43560;SDS011;32305;46.410;17.394;2022-09-09T12:24:49;2.20;;;0.60;;
43560;SDS011;32305;46.410;17.394;2022-09-09T12:27:42;2.08;;;0.40;;
43560;SDS011;32305;46.410;17.394;2022-09-09T12:30:14;0.90;;;0.50;;
43560;SDS011;32305;46.410;17.394;2022-09-09T12:32:42;1.20;;;0.60;;
43560;SDS011;32305;46.410;17.394;2022-09-09T12:35:12;7.13;;;0.30;;
43560;SDS011;32305;46.410;17.394;2022-09-09T12:37:50;0.30;;;0.30;;
43560;SDS011;32305;46.410;17.394;2022-09-09T12:40:25;7.88;;;0.47;;
43560;SDS011;32305;46.410;17.394;2022-09-09T12:45:23;0.32;;;0.30;;
43560;SDS011;32305;46.410;17.394;2022-09-09T12:47:54;0.57;;;0.40;;
43560;SDS011;32305;46.410;17.394;2022-09-09T12:58:11;0.40;;;0.40;;
43560;SDS011;32305;46.410;17.394;2022-09-09T13:00:49;0.60;;;0.40;;
43560;SDS011;32305;46.410;17.394;2022-09-09T13:03:19;0.32;;;0.20;;
43560;SDS011;32305;46.410;17.394;2022-09-09T13:05:48;1.88;;;0.40;;
43560;SDS011;32305;46.410;17.394;2022-09-09T13:16:34;0.68;;;0.30;;
43560;SDS011;32305;46.410;17.394;2022-09-09T13:19:08;0.35;;;0.30;;
43560;SDS011;32305;46.410;17.394;2022-09-09T13:21:41;0.65;;;0.60;;
43560;SDS011;32305;46.410;17.394;2022-09-09T13:24:27;0.32;;;0.32;;
43560;SDS011;32305;46.410;17.394;2022-09-09T13:27:00;0.50;;;0.50;;
43560;SDS011;32305;46.410;17.394;2022-09-09T13:29:30;0.80;;;0.40;;
43560;SDS011;32305;46.410;17.394;2022-09-09T13:32:05;0.25;;;0.25;;
43560;SDS011;32305;46.410;17.394;2022-09-09T13:34:52;0.47;;;0.40;;
43560;SDS011;32305;46.410;17.394;2022-09-09T13:37:30;0.57;;;0.57;;
43560;SDS011;32305;46.410;17.394;2022-09-09T13:40:02;0.40;;;0.40;;
43560;SDS011;32305;46.410;17.394;2022-09-09T13:42:33;1.20;;;0.30;;
43560;SDS011;32305;46.410;17.394;2022-09-09T13:45:14;0.30;;;0.30;;
43560;SDS011;32305;46.410;17.394;2022-09-09T13:47:46;0.30;;;0.30;;
43560;SDS011;32305;46.410;17.394;2022-09-09T13:50:23;1.30;;;0.40;;
43560;SDS011;32305;46.410;17.394;2022-09-09T13:52:56;1.35;;;0.40;;
43560;SDS011;32305;46.410;17.394;2022-09-09T13:55:25;0.40;;;0.40;;
43560;SDS011;32305;46.410;17.394;2022-09-09T13:57:54;0.50;;;0.30;;
43560;SDS011;32305;46.410;17.394;2022-09-09T14:00:29;3.05;;;1.13;;
43560;SDS011;32305;46.410;17.394;2022-09-09T14:02:57;0.45;;;0.43;;
43560;SDS011;32305;46.410;17.394;2022-09-09T14:05:30;0.50;;;0.43;;
43560;SDS011;32305;46.410;17.394;2022-09-09T14:07:59;0.40;;;0.40;;
43560;SDS011;32305;46.410;17.394;2022-09-09T14:10:27;5.90;;;0.60;;
43560;SDS011;32305;46.410;17.394;2022-09-09T14:12:54;0.73;;;0.47;;
43560;SDS011;32305;46.410;17.394;2022-09-09T14:15:22;0.40;;;0.40;;
43560;SDS011;32305;46.410;17.394;2022-09-09T14:17:49;2.20;;;0.60;;
43560;SDS011;32305;46.410;17.394;2022-09-09T14:20:18;0.40;;;0.40;;
43560;SDS011;32305;46.410;17.394;2022-09-09T14:22:46;0.50;;;0.50;;
43560;SDS011;32305;46.410;17.394;2022-09-09T14:25:13;2.83;;;0.50;;
43560;SDS011;32305;46.410;17.394;2022-09-09T14:27:40;0.77;;;0.55;;
43560;SDS011;32305;46.410;17.394;2022-09-09T14:30:08;0.45;;;0.45;;
43560;SDS011;32305;46.410;17.394;2022-09-09T14:32:36;2.03;;;0.40;;
43560;SDS011;32305;46.410;17.394;2022-09-09T14:35:03;0.28;;;0.28;;
43560;SDS011;32305;46.410;17.394;2022-09-09T14:37:31;0.20;;;0.20;;
43560;SDS011;32305;46.410;17.394;2022-09-09T14:39:58;0.40;;;0.40;;
43560;SDS011;32305;46.410;17.394;2022-09-09T14:42:25;0.50;;;0.50;;
43560;SDS011;32305;46.410;17.394;2022-09-09T14:44:53;3.42;;;0.65;;
43560;SDS011;32305;46.410;17.394;2022-09-09T14:47:20;0.75;;;0.40;;
43560;SDS011;32305;46.410;17.394;2022-09-09T14:49:47;0.52;;;0.43;;
43560;SDS011;32305;46.410;17.394;2022-09-09T14:52:16;2.05;;;0.40;;
43560;SDS011;32305;46.410;17.394;2022-09-09T14:54:43;1.75;;;0.63;;
43560;SDS011;32305;46.410;17.394;2022-09-09T14:57:10;0.35;;;0.35;;
43560;SDS011;32305;46.410;17.394;2022-09-09T14:59:37;0.40;;;0.40;;
43560;SDS011;32305;46.410;17.394;2022-09-09T15:02:04;1.48;;;0.63;;
43560;SDS011;32305;46.410;17.394;2022-09-09T15:04:32;0.40;;;0.40;;
43560;SDS011;32305;46.410;17.394;2022-09-09T15:06:59;0.35;;;0.35;;
43560;SDS011;32305;46.410;17.394;2022-09-09T15:09:26;1.20;;;0.43;;
43560;SDS011;32305;46.410;17.394;2022-09-09T15:11:53;0.45;;;0.40;;
43560;SDS011;32305;46.410;17.394;2022-09-09T15:14:21;0.45;;;0.30;;
43560;SDS011;32305;46.410;17.394;2022-09-09T15:16:51;0.95;;;0.50;;
43560;SDS011;32305;46.410;17.394;2022-09-09T15:19:18;0.70;;;0.30;;
43560;SDS011;32305;46.410;17.394;2022-09-09T15:21:45;0.63;;;0.60;;
43560;SDS011;32305;46.410;17.394;2022-09-09T15:24:13;0.65;;;0.30;;
43560;SDS011;32305;46.410;17.394;2022-09-09T15:26:40;1.50;;;0.40;;
43560;SDS011;32305;46.410;17.394;2022-09-09T15:29:07;0.50;;;0.50;;
43560;SDS011;32305;46.410;17.394;2022-09-09T15:31:35;0.55;;;0.35;;
43560;SDS011;32305;46.410;17.394;2022-09-09T15:34:03;0.50;;;0.50;;
43560;SDS011;32305;46.410;17.394;2022-09-09T15:36:33;1.92;;;0.98;;
43560;SDS011;32305;46.410;17.394;2022-09-09T15:39:06;0.45;;;0.40;;
43560;SDS011;32305;46.410;17.394;2022-09-09T15:41:39;0.40;;;0.35;;
43560;SDS011;32305;46.410;17.394;2022-09-09T15:44:06;0.28;;;0.28;;
43560;SDS011;32305;46.410;17.394;2022-09-09T15:46:36;1.85;;;0.50;;
43560;SDS011;32305;46.410;17.394;2022-09-09T15:49:05;0.68;;;0.30;;
43560;SDS011;32305;46.410;17.394;2022-09-09T15:51:38;1.45;;;0.50;;
43560;SDS011;32305;46.410;17.394;2022-09-09T15:54:10;0.20;;;0.20;;
43560;SDS011;32305;46.410;17.394;2022-09-09T15:56:39;0.50;;;0.50;;
43560;SDS011;32305;46.410;17.394;2022-09-09T15:59:06;0.30;;;0.30;;
43560;SDS011;32305;46.410;17.394;2022-09-09T16:01:34;0.43;;;0.43;;
43560;SDS011;32305;46.410;17.394;2022-09-09T16:04:02;0.82;;;0.43;;
43560;SDS011;32305;46.410;17.394;2022-09-09T16:06:30;1.05;;;0.40;;
43560;SDS011;32305;46.410;17.394;2022-09-09T16:08:58;0.50;;;0.45;;